Time;durP1;ratioP1;P1;durP2;ratioP2;P2;SDS_P1;SDS_P2;PMS_P1;PMS_P2;Temp;Humidity;BMP_temperature;BMP_pressure;BME280_temperature;BME280_humidity;BME280_pressure;Samples;Min_cycle;Max_cycle;Signal;HPM_P1;HPM_P2
2024/01/14 00:00:59;;;;;;;67.65;25.30;;;;;;;-144.05;87.79;57025.13;5092242;28;20513;-87
2024/01/14 00:03:25;;;;;;;74.28;27.95;;;;;;;-144.05;87.55;57107.97;5099468;28;20083;-84
2024/01/14 00:05:52;;;;;;;82.82;29.83;;;;;;;-144.05;87.56;57067.59;5095057;28;20512;-84
2024/01/14 00:08:19;;;;;;;79.70;27.30;;;;;;;-144.05;87.79;57031.50;5090925;28;20467;-83
2024/01/14 00:10:45;;;;;;;76.90;27.85;;;;;;;-144.05;87.43;57027.25;5090503;28;20062;-83
2024/01/14 00:13:11;;;;;;;70.97;26.77;;;;;;;-144.05;87.75;57050.63;5091994;28;20027;-83
2024/01/14 00:15:38;;;;;;;75.95;27.13;;;;;;;-144.05;88.08;57107.97;5098806;28;20042;-84
2024/01/14 00:18:04;;;;;;;81.05;27.40;;;;;;;-144.05;88.29;57076.09;5091091;28;20043;-81
2024/01/14 00:20:31;;;;;;;79.07;26.50;;;;;;;-144.05;88.00;57069.72;5091828;28;20028;-81
2024/01/14 00:22:57;;;;;;;82.25;28.08;;;;;;;-144.05;87.39;57044.25;5090164;28;20052;-82
2024/01/14 00:25:23;;;;;;;79.82;27.65;;;;;;;-144.05;87.67;57044.25;5106413;28;20062;-85
2024/01/14 00:27:49;;;;;;;80.93;26.77;;;;;;;-144.05;88.15;57059.09;5093930;28;20446;-83
2024/01/14 00:30:17;;;;;;;73.05;26.48;;;-1.50;99.90;;;-144.05;88.20;57044.25;5096759;28;20036;-82
2024/01/14 00:32:43;;;;;;;77.65;25.35;;;;;;;-144.05;88.49;57061.22;5090162;28;20032;-84
2024/01/14 00:35:09;;;;;;;77.75;28.00;;;;;;;-144.05;88.37;57073.97;5091778;28;20114;-82
2024/01/14 00:37:36;;;;;;;70.35;26.02;;;;;;;-144.05;87.96;57067.59;5090687;28;20123;-82
2024/01/14 00:40:06;;;;;;;66.65;23.20;;;;;;;-144.05;88.66;57061.22;5098629;28;20055;-83
2024/01/14 00:42:32;;;;;;;79.43;26.65;;;;;;;-144.05;88.36;57054.88;5092030;28;20032;-84
2024/01/14 00:44:59;;;;;;;74.75;26.75;;;;;;;-144.05;88.26;57080.34;5099064;28;20489;-82
2024/01/14 00:47:30;;;;;;;69.10;26.02;;;;;;;-144.05;88.54;57046.38;5091441;28;20104;-81
2024/01/14 00:49:56;;;;;;;83.05;28.50;;;;;;;-144.05;88.58;57050.63;5098033;28;20101;-85
2024/01/14 00:52:23;;;;;;;77.95;26.35;;;;;;;-144.05;87.99;57078.22;5090180;28;20124;-80
2024/01/14 00:54:49;;;;;;;90.22;29.95;;;;;;;-144.05;87.97;57054.88;5091128;28;20036;-82
2024/01/14 00:57:16;;;;;;;74.53;25.27;;;;;;;-144.05;87.96;57048.50;5089703;28;20024;-84
2024/01/14 00:59:42;;;;;;;80.60;28.67;;;;;;;-144.05;88.07;57033.63;5092776;28;20440;-83
2024/01/14 01:02:08;;;;;;;91.78;29.15;;;;;;;-144.05;87.92;57101.59;5093880;28;20070;-85
2024/01/14 01:04:34;;;;;;;78.82;29.00;;;;;;;-144.05;87.79;57056.97;5094586;28;20422;-83
2024/01/14 01:07:01;;;;;;;83.97;28.35;;;;;;;-144.05;88.14;57042.13;5093608;28;20028;-84
2024/01/14 01:09:27;;;;;;;84.07;29.40;;;;;;;-144.05;88.74;57061.22;5094831;28;20462;-84
2024/01/14 01:11:53;;;;;;;87.93;29.15;;;;;;;-144.05;88.00;57078.22;5093779;28;20032;-84
2024/01/14 01:14:19;;;;;;;84.68;26.00;;;;;;;-144.05;88.13;57050.63;5093525;28;20039;-86
2024/01/14 01:16:45;;;;;;;79.60;28.20;;;;;;;-144.05;87.88;57050.63;5095412;28;20032;-81
2024/01/14 01:19:12;;;;;;;84.55;29.80;;;;;;;-144.05;87.45;57080.34;5093722;28;20447;-84
2024/01/14 01:21:38;;;;;;;77.13;26.83;;;;;;;-144.05;87.63;57061.22;5095712;28;20111;-85
2024/01/14 01:24:04;;;;;;;74.45;26.73;;;;;;;-144.05;88.06;57029.38;5094869;28;20412;-84
2024/01/14 01:26:30;;;;;;;85.82;28.25;;;;;;;-144.05;87.97;57035.75;5103916;28;20036;-83
2024/01/14 01:28:57;;;;;;;75.68;27.77;;;;;;;-144.05;87.80;57048.50;5102566;28;20107;-85
2024/01/14 01:31:23;;;;;;;75.95;27.33;;;;;;;-144.05;87.67;57082.47;5095461;28;20055;-83
2024/01/14 01:33:49;;;;;;;81.00;27.65;;;;;;;-144.05;87.80;57050.63;5093092;28;20392;-82
2024/01/14 01:36:15;;;;;;;73.05;28.15;;;;;;;-144.05;88.03;57073.97;5093386;28;20020;-84
2024/01/14 01:38:41;;;;;;;74.18;25.48;;;;;;;-144.05;87.99;57067.59;5093084;28;20032;-82
2024/01/14 01:41:08;;;;;;;83.55;27.27;;;;;;;-144.05;88.77;57067.59;5094686;28;20044;-84
2024/01/14 01:43:34;;;;;;;72.13;27.55;;;;;;;-144.05;88.59;57069.72;5095243;28;20114;-82
2024/01/14 01:46:01;;;;;;;74.05;28.58;;;;;;;-144.05;88.42;57048.50;5100407;28;20491;-82
2024/01/14 01:48:27;;;;;;;81.78;28.00;;;;;;;-144.05;87.88;57078.22;5101942;28;20055;-82
2024/01/14 01:50:56;;;;;;;71.57;24.73;;;;;;;-144.05;87.12;57027.25;5111789;28;20458;-84
2024/01/14 01:53:25;;;;;;;72.30;25.80;;;;;;;-144.05;86.90;57065.47;5108531;28;20035;-83
2024/01/14 01:55:52;;;;;;;72.38;26.33;;;;;;;-144.05;87.42;57080.34;5094582;28;20028;-84
2024/01/14 01:58:19;;;;;;;68.38;26.20;;;;;;;-144.05;87.14;57063.34;5095811;28;20058;-82
2024/01/14 02:00:49;;;;;;;71.15;27.73;;;;;;;-144.05;86.92;57044.25;5108463;28;20035;-86
2024/01/14 02:03:16;;;;;;;63.47;26.10;;;;;;;-144.05;86.92;57073.97;5103107;28;20067;-84
2024/01/14 02:05:44;;;;;;;63.47;24.35;;;;;;;-144.05;87.12;57046.38;5093444;28;20469;-83
2024/01/14 02:08:12;;;;;;;67.47;25.10;;;;;;;-144.05;87.34;57063.34;5092522;28;20032;-83
2024/01/14 02:10:38;;;;;;;64.43;22.55;;;;;;;-144.05;87.68;57071.84;5093343;28;20051;-85
2024/01/14 02:13:05;;;;;;;65.80;25.13;;;;;;;-144.05;86.95;57040.00;5093656;28;20032;-83
2024/01/14 02:15:32;;;;;;;61.75;23.58;;;;;;;-144.05;87.05;57065.47;5103401;28;20024;-83
2024/01/14 02:17:58;;;;;;;62.78;24.08;;;;;;;-144.05;87.43;57073.97;5105240;28;20057;-83
2024/01/14 02:20:27;;;;;;;59.70;23.90;;;;;;;-144.05;86.80;57067.59;5099775;28;20469;-86
2024/01/14 02:22:56;;;;;;;63.60;23.48;;;2.10;99.90;;;-144.05;86.70;57071.84;5098794;28;20469;-83
2024/01/14 02:25:23;;;;;;;55.63;22.38;;;;;;;-144.05;86.83;57054.88;5093698;28;20040;-84
2024/01/14 02:27:50;;;;;;;50.85;21.10;;;;;;;-144.05;86.08;57065.47;5119655;28;20023;-84
2024/01/14 02:30:17;;;;;;;56.05;23.38;;;;;;;-144.05;86.74;57035.75;5097549;28;20041;-83
2024/01/14 02:32:43;;;;;;;58.17;21.90;;;;;;;-144.05;87.02;57056.97;5093198;28;20036;-84
2024/01/14 02:35:09;;;;;;;58.67;21.25;;;;;;;-144.05;86.95;57069.72;5092117;28;20055;-84
2024/01/14 02:37:43;;;;;;;58.78;23.17;;;;;;;-144.05;87.32;57086.72;5092064;28;20393;-83
2024/01/14 02:40:12;;;;;;;56.85;23.30;;;;;;;-144.05;87.13;57071.84;5102176;28;20089;-84
2024/01/14 02:42:40;;;;;;;54.53;22.23;;;;;;;-144.05;86.55;57080.34;5091932;28;20028;-84
2024/01/14 02:45:07;;;;;;;49.63;21.40;;;;;;;-144.05;86.45;57061.22;5095819;28;20027;-83
2024/01/14 02:47:33;;;;;;;63.42;22.65;;;;;;;-144.05;87.60;57095.22;5095921;28;20036;-83
2024/01/14 02:49:59;;;;;;;57.88;22.02;;;;;;;-144.05;87.40;57073.97;5093496;28;20054;-82
2024/01/14 02:52:26;;;;;;;56.55;22.95;;;;;;;-144.05;86.87;57054.88;5091807;28;20036;-83
2024/01/14 02:54:52;;;;;;;57.08;21.88;;;;;;;-144.05;86.74;57095.22;5094893;28;20032;-82
2024/01/14 02:57:18;;;;;;;52.60;22.00;;;;;;;-144.05;86.48;57088.84;5109676;27;20558;-84
2024/01/14 02:59:44;;;;;;;53.40;21.35;;;;;;;-144.05;86.85;57061.22;5102256;28;20024;-84
2024/01/14 03:02:11;;;;;;;54.33;22.30;;;;;;;-144.05;86.99;57082.47;5097872;28;20032;-84
2024/01/14 03:04:37;;;;;;;49.97;21.17;;;;;;;-144.05;86.85;57050.63;5100031;28;20031;-86
2024/01/14 03:07:03;;;;;;;49.70;20.13;;;;;;;-144.05;87.02;57037.88;5093907;28;20084;-84
2024/01/14 03:09:29;;;;;;;48.63;19.30;;;;;;;-144.05;86.95;57069.72;5093431;28;20127;-84
2024/01/14 03:11:55;;;;;;;54.75;21.20;;;;;;;-144.05;86.83;57065.47;5100417;28;20421;-86
2024/01/14 03:14:22;;;;;;;48.70;19.10;;;;;;;-144.05;87.60;57023.00;5094937;28;20115;-84
2024/01/14 03:16:48;;;;;;;52.60;19.67;;;;;;;-144.05;87.69;57061.22;5104766;28;20028;-84
2024/01/14 03:19:14;;;;;;;47.88;18.25;;;;;;;-144.05;87.16;57082.47;5096632;28;20036;-83
2024/01/14 03:21:40;;;;;;;48.78;19.65;;;;;;;-144.05;87.05;57063.34;5092297;28;20108;-84
2024/01/14 03:24:07;;;;;;;50.63;20.70;;;;;;;-144.05;87.70;57059.09;5099775;28;20077;-86
2024/01/14 03:26:33;;;;;;;47.05;19.25;;;;;;;-144.05;87.61;57063.34;5104178;28;20048;-85
2024/01/14 03:28:59;;;;;;;52.72;22.38;;;;;;;-144.05;87.51;57073.97;5098774;28;20653;-85
2024/01/14 03:31:25;;;;;;;48.28;19.13;;;;;;;-144.05;87.58;57069.72;5092704;28;20115;-86
2024/01/14 03:33:52;;;;;;;57.05;20.08;;;;;;;-144.05;88.02;57073.97;5094909;28;20380;-84
2024/01/14 03:36:18;;;;;;;56.53;21.35;;;;;;;-144.05;87.68;57040.00;5095811;28;20063;-85
2024/01/14 03:38:44;;;;;;;52.13;19.85;;;;;;;-144.05;87.34;57114.34;5091150;28;20063;-83
2024/01/14 03:41:11;;;;;;;48.83;20.48;;;;;;;-144.05;87.38;57052.75;5110989;28;20054;-83
2024/01/14 03:43:37;;;;;;;54.63;21.52;;;;;;;-144.05;87.42;57110.09;5098739;28;20442;-83
2024/01/14 03:46:04;;;;;;;57.55;21.10;;;;;;;-144.05;87.97;57050.63;5092649;28;20122;-84
2024/01/14 03:48:30;;;;;;;60.38;23.17;;;;;;;-144.05;87.75;57033.63;5102462;28;20497;-84
2024/01/14 03:50:56;;;;;;;67.55;24.42;;;;;;;-144.05;87.60;57056.97;5096975;28;20028;-85
2024/01/14 03:53:23;;;;;;;67.20;25.15;;;;;;;-144.05;87.77;57042.13;5093425;28;20039;-83
2024/01/14 03:55:49;;;;;;;63.88;23.45;;;;;;;-144.05;87.50;57067.59;5107433;28;20087;-84
2024/01/14 03:58:16;;;;;;;64.70;24.15;;;;;;;-144.05;87.44;57046.38;5097170;28;20031;-85
2024/01/14 04:00:42;;;;;;;66.93;25.70;;;;;;;-144.05;87.38;57073.97;5099235;28;20507;-87
2024/01/14 04:03:08;;;;;;;64.72;24.85;;;;;;;-144.05;88.38;57056.97;5097485;28;20485;-88
2024/01/14 04:05:34;;;;;;;71.47;26.13;;;;;;;-144.05;87.51;57054.88;5100468;28;20109;-85
2024/01/14 04:08:01;;;;;;;71.97;25.90;;;;;;;-144.05;88.19;57061.22;5098744;28;20028;-84
2024/01/14 04:10:27;;;;;;;70.70;27.17;;;;;;;-144.05;87.68;57063.34;5092462;28;20052;-84
2024/01/14 04:12:53;;;;;;;63.22;24.73;;;;;;;-144.05;87.64;57065.47;5098236;28;20111;-82
2024/01/14 04:15:22;;;;;;;62.17;24.63;;;;;;;-144.05;87.88;57059.09;5099087;28;20530;-83
2024/01/14 04:17:49;;;;;;;60.95;23.58;;;;;;;-144.05;88.05;57065.47;5101170;28;20057;-84
2024/01/14 04:20:15;;;;;;;67.88;25.75;;;;;;;-144.05;87.50;57105.84;5107293;28;20032;-85
2024/01/14 04:22:41;;;;;;;58.03;21.98;;;;;;;-144.05;87.08;57035.75;5106025;28;20498;-82
2024/01/14 04:25:08;;;;;;;59.83;23.10;;;;;;;-144.05;87.51;57056.97;5096021;28;20036;-82
2024/01/14 04:27:37;;;;;;;59.58;23.13;;;;;;;-144.05;87.37;57067.59;5090223;28;20573;-84
2024/01/14 04:30:04;;;;;;;52.88;21.50;;;;;;;-144.05;87.07;57073.97;5090457;28;20096;-83
2024/01/14 04:32:31;;;;;;;55.47;21.05;;;;;;;-144.05;87.01;57084.59;5091655;28;20043;-84
2024/01/14 04:34:57;;;;;;;45.72;21.35;;;;;;;-144.05;86.88;57061.22;5106651;28;20055;-84
2024/01/14 04:37:23;;;;;;;46.03;19.77;;;;;;;-144.05;87.10;57101.59;5108612;28;20028;-85
2024/01/14 04:39:50;;;;;;;47.47;18.30;;;;;;;-144.05;87.25;57073.97;5098110;28;20039;-83
2024/01/14 04:42:17;;;;;;;47.75;19.92;;;;;;;-144.05;87.65;57078.22;5101154;28;20040;-83
2024/01/14 04:44:43;;;;;;;46.13;19.63;;;;;;;-144.05;87.68;57052.75;5097918;28;20032;-81
2024/01/14 04:47:09;;;;;;;45.28;19.83;;;;;;;-144.05;87.00;57082.47;5097595;28;20054;-83
2024/01/14 04:49:35;;;;;;;44.83;18.80;;;;;;;-144.05;86.92;57078.22;5119984;28;20077;-84
2024/01/14 04:52:01;;;;;;;42.88;20.02;;;;;;;-144.05;86.79;57042.13;5095940;28;20032;-84
2024/01/14 04:54:28;;;;;;;50.50;19.85;;;;;;;-144.05;86.92;57082.47;5094212;28;20454;-84
2024/01/14 04:56:54;;;;;;;50.92;20.65;;;;;;;-144.05;87.09;57073.97;5102010;28;20031;-83
2024/01/14 04:59:21;;;;;;;51.67;20.55;;;;;;;-144.05;86.78;57071.84;5094487;28;20151;-83
2024/01/14 05:01:47;;;;;;;49.30;19.45;;;;;;;-144.05;87.04;57067.59;5101566;28;20088;-81
2024/01/14 05:04:13;;;;;;;51.78;21.30;;;;;;;-144.05;87.07;57056.97;5099534;28;20059;-85
2024/01/14 05:06:39;;;;;;;56.47;21.13;;;;;;;-144.05;86.83;57067.59;5098691;28;20556;-82
2024/01/14 05:09:05;;;;;;;57.72;23.05;;;;;;;-144.05;87.24;57069.72;5101079;28;20028;-83
2024/01/14 05:11:32;;;;;;;60.08;24.42;;;;;;;-144.05;87.44;57054.88;5096037;28;20472;-83
2024/01/14 05:13:58;;;;;;;66.50;24.88;;;;;;;-144.05;87.06;57078.22;5095823;28;20032;-85
2024/01/14 05:16:24;;;;;;;66.13;22.98;;;;;;;-144.05;86.99;57054.88;5094570;28;20024;-85
2024/01/14 05:18:51;;;;;;;66.38;26.23;;;;;;;-144.05;87.24;57052.75;5114979;28;20377;-81
2024/01/14 05:21:17;;;;;;;69.40;28.13;;;;;;;-144.05;87.55;57052.75;5099278;28;20057;-83
2024/01/14 05:23:44;;;;;;;67.25;26.00;;;;;;;-144.05;86.88;57084.59;5103061;28;20451;-83
2024/01/14 05:26:10;;;;;;;74.75;27.90;;;;;;;-144.05;86.82;57080.34;5108298;28;20042;-83
2024/01/14 05:28:37;;;;;;;74.43;27.98;;;;;;;-144.05;86.66;57069.72;5116849;27;20397;-83
2024/01/14 05:31:03;;;;;;;76.63;29.23;;;;;;;-144.05;86.97;57061.22;5104406;28;20032;-82
2024/01/14 05:33:29;;;;;;;78.25;27.70;;;;;;;-144.05;88.02;57095.22;5096472;28;20054;-81
2024/01/14 05:35:56;;;;;;;78.93;28.88;;;;;;;-144.05;86.77;57061.22;5095345;28;20028;-83
2024/01/14 05:38:22;;;;;;;75.47;28.05;;;;;;;-144.05;86.97;57071.84;5093665;28;20107;-83
2024/01/14 05:40:48;;;;;;;79.18;27.30;;;;;;;-144.05;86.93;57050.63;5095082;28;20047;-83
2024/01/14 05:43:14;;;;;;;81.00;29.35;;;;;;;-144.05;86.70;57023.00;5099758;28;20106;-84
2024/01/14 05:45:41;;;;;;;76.43;28.45;;;;;;;-144.05;87.12;57073.97;5092833;28;20484;-84
2024/01/14 05:48:07;;;;;;;83.63;28.45;;;;;;;-144.05;86.87;57050.63;5109046;28;20031;-84
2024/01/14 05:50:33;;;;;;;75.50;26.80;;;;;;;-144.05;87.63;57069.72;5113331;28;20103;-83
2024/01/14 05:53:00;;;;;;;80.65;28.20;;;;;;;-144.05;86.62;57061.22;5118505;28;20096;-83
2024/01/14 05:55:26;;;;;;;78.03;27.13;;;;;;;-144.05;87.23;57078.22;5119294;28;20024;-83
2024/01/14 05:57:53;;;;;;;75.68;28.73;;;;;;;-144.05;87.02;57061.22;5115527;28;20043;-85
2024/01/14 06:00:22;;;;;;;89.93;31.83;;;;;;;-144.05;87.85;57076.09;5117871;28;20032;-81
2024/01/14 06:02:49;;;;;;;87.88;30.60;;;;;;;-144.05;88.45;57078.22;5118995;28;20039;-83
2024/01/14 06:05:15;;;;;;;86.25;33.38;;;;;;;-144.05;87.58;57093.09;5120675;28;20038;-87
2024/01/14 06:07:42;;;;;;;85.95;31.45;;;;;;;-144.05;87.72;57050.63;5117934;28;20033;-83
2024/01/14 06:10:09;;;;;;;82.80;30.77;;;;;;;-144.05;88.40;57046.38;5111572;28;20054;-84
2024/01/14 06:12:35;;;;;;;89.72;31.05;;;;;;;-144.05;88.17;57044.25;5117247;28;20028;-86
2024/01/14 06:15:02;;;;;;;97.32;32.47;;;;;;;-144.05;88.65;57076.09;5099473;28;20031;-84
2024/01/14 06:17:28;;;;;;;84.18;31.70;;;;;;;-144.05;88.25;57073.97;5108508;28;20024;-83
2024/01/14 06:19:54;;;;;;;89.00;31.10;;;;;;;-144.05;87.43;57076.09;5111534;28;20054;-83
2024/01/14 06:22:20;;;;;;;97.10;33.80;;;;;;;-144.05;87.37;57061.22;5098284;28;20206;-83
2024/01/14 06:24:46;;;;;;;91.72;33.08;;;;;;;-144.05;87.38;57073.97;5105823;28;20031;-81
2024/01/14 06:27:13;;;;;;;89.85;31.00;;;;;;;-144.05;88.07;57042.13;5101372;28;20059;-82
2024/01/14 06:29:40;;;;;;;80.63;29.85;;;2.10;99.90;;;-144.05;87.23;57073.97;5102105;28;20473;-84
2024/01/14 06:32:06;;;;;;;81.10;30.10;;;;;;;-144.05;87.75;57063.34;5114613;28;20032;-81
2024/01/14 06:34:33;;;;;;;89.10;31.92;;;;;;;-144.05;87.63;57095.22;5122331;27;20027;-83
2024/01/14 06:36:59;;;;;;;92.03;30.98;;;;;;;-144.05;87.81;57082.47;5102823;28;20032;-83
2024/01/14 06:39:25;;;;;;;98.85;32.25;;;;;;;-144.05;87.35;57065.47;5100584;28;20081;-86
2024/01/14 06:41:52;;;;;;;100.50;32.25;;;;;;;-144.05;88.23;57054.88;5110357;28;20511;-84
2024/01/14 06:44:19;;;;;;;88.55;31.77;;;2.20;99.90;;;-144.05;87.64;57088.84;5106888;28;20028;-83
2024/01/14 06:46:45;;;;;;;90.63;31.25;;;;;;;-144.05;87.67;57065.47;5114525;28;20020;-85
2024/01/14 06:49:12;;;;;;;89.95;32.80;;;;;;;-144.05;87.80;57059.09;5105841;28;20554;-83
2024/01/14 06:51:45;;;;;;;82.47;29.77;;;2.30;99.90;;;-144.05;88.42;57101.59;5097571;28;20054;-80
2024/01/14 06:54:12;;;;;;;79.72;29.75;;;;;;;-144.05;88.05;57042.13;5102957;28;20044;-83
2024/01/14 06:56:48;;;;;;;84.13;28.95;;;;;;;-144.05;87.71;57073.97;5093991;28;20030;-83
2024/01/14 06:59:18;;;;;;;74.25;28.92;;;;;;;-144.05;87.80;57078.22;5099401;28;20115;-83
2024/01/14 07:01:45;;;;;;;79.50;29.20;;;;;;;-144.05;87.02;57069.72;5121917;27;20030;-83
2024/01/14 07:04:12;;;;;;;73.18;28.13;;;;;;;-144.05;86.69;57084.59;5109280;28;20114;-82
2024/01/14 07:06:39;;;;;;;86.45;30.05;;;;;;;-144.05;87.31;57056.97;5106804;27;20497;-84
2024/01/14 07:09:08;;;;;;;74.70;27.50;;;;;;;-144.05;87.15;57086.72;5117821;28;20118;-79
2024/01/14 07:11:35;;;;;;;74.28;26.58;;;;;;;-144.05;87.40;57061.22;5105267;28;20020;-83
2024/01/14 07:14:01;;;;;;;83.68;28.90;;;;;;;-144.05;87.37;57046.38;5099348;28;20110;-82
2024/01/14 07:16:28;;;;;;;77.18;27.02;;;;;;;-144.05;86.97;57048.50;5101744;28;20044;-82
2024/01/14 07:18:54;;;;;;;71.57;26.80;;;;;;;-144.05;87.31;57078.22;5107861;28;20057;-83
2024/01/14 07:21:22;;;;;;;75.82;27.70;;;;;;;-144.05;87.62;57044.25;5111477;28;20043;-84
2024/01/14 07:23:49;;;;;;;67.47;26.20;;;;;;;-144.05;87.38;57076.09;5094126;28;20031;-85
2024/01/14 07:26:20;;;;;;;77.38;25.98;;;;;;;-144.05;86.88;57076.09;5102635;28;20097;-82
2024/01/14 07:28:46;;;;;;;69.63;26.65;;;;;;;-144.05;87.45;57086.72;5101740;28;20031;-82
2024/01/14 07:31:16;;;;;;;66.35;26.15;;;;;;;-144.05;86.54;57054.88;5104039;28;20408;-83
2024/01/14 07:33:43;;;;;;;66.03;24.73;;;;;;;-144.05;88.24;57056.97;5103738;28;20048;-84
2024/01/14 07:36:09;;;;;;;73.05;27.05;;;;;;;-144.05;87.32;57063.34;5109814;28;20074;-83
2024/01/14 07:38:35;;;;;;;79.85;27.17;;;;;;;-144.05;87.97;57082.47;5102402;28;20448;-84
2024/01/14 07:41:02;;;;;;;71.68;26.60;;;;;;;-144.05;88.03;57093.09;5102518;28;20024;-83
2024/01/14 07:43:28;;;;;;;81.68;29.90;;;;;;;-144.05;87.67;57080.34;5101115;28;20028;-81
2024/01/14 07:45:54;;;;;;;83.57;27.38;;;;;;;-144.05;87.87;57105.84;5114794;28;20443;-84
2024/01/14 07:48:20;;;;;;;89.97;32.38;;;;;;;-144.05;88.05;57082.47;5105832;28;20051;-85
2024/01/14 07:50:46;;;;;;;86.03;28.80;;;;;;;-144.05;87.65;57080.34;5104478;28;20063;-83
2024/01/14 07:53:13;;;;;;;84.00;28.48;;;;;;;-144.05;87.42;57046.38;5103458;28;20028;-83
2024/01/14 07:55:39;;;;;;;88.07;29.02;;;;;;;-144.05;87.90;57097.34;5105431;28;20023;-82
2024/01/14 07:58:05;;;;;;;85.68;31.30;;;;;;;-144.05;87.49;57065.47;5098241;28;20032;-81
2024/01/14 08:00:31;;;;;;;83.57;29.98;;;;;;;-144.05;87.12;57061.22;5099828;28;20374;-83
2024/01/14 08:02:58;;;;;;;80.60;28.23;;;;;;;-144.05;87.27;57069.72;5103794;28;20095;-82
2024/01/14 08:05:24;;;;;;;82.43;30.63;;;;;;;-144.05;87.62;57078.22;5097657;28;20217;-83
2024/01/14 08:07:50;;;;;;;82.70;29.55;;;;;;;-144.05;86.98;57050.63;5104971;28;20086;-85
2024/01/14 08:10:21;;;;;;;81.40;29.73;;;;;;;-144.05;87.08;57095.22;5106819;28;20056;-85
2024/01/14 08:12:47;;;;;;;84.80;28.10;;;;;;;-144.05;87.58;57090.97;5112368;28;20042;-82
2024/01/14 08:15:15;;;;;;;93.40;30.40;;;-1.20;99.90;;;-144.05;87.33;57101.59;5102849;28;20142;-83
2024/01/14 08:17:41;;;;;;;71.10;27.75;;;;;;;-144.05;86.94;57084.59;5111545;28;20074;-83
2024/01/14 08:20:10;;;;;;;78.00;29.15;;;;;;;-144.05;86.66;57069.72;5108245;28;20039;-83
2024/01/14 08:22:39;;;;;;;73.03;26.58;;;;;;;-144.05;87.15;57061.22;5097037;28;20024;-81
2024/01/14 08:25:07;;;;;;;70.95;27.15;;;;;;;-144.05;87.35;57035.75;5093331;28;20043;-83
2024/01/14 08:27:34;;;;;;;72.50;26.52;;;;;;;-144.05;87.02;57090.97;5094732;28;20032;-82
2024/01/14 08:30:01;;;;;;;67.55;26.70;;;;;;;-144.05;86.55;57080.34;5107452;28;20516;-82
2024/01/14 08:32:29;;;;;;;77.97;27.00;;;-2.00;99.90;;;-144.05;86.77;57073.97;5107923;28;20089;-81
2024/01/14 08:34:56;;;;;;;74.80;27.25;;;;;;;-144.05;86.83;57093.09;5099005;28;20052;-82
2024/01/14 08:37:23;;;;;;;77.50;28.35;;;;;;;-144.05;87.05;57056.97;5093597;28;20028;-81
2024/01/14 08:39:50;;;;;;;80.00;29.33;;;;;;;-144.05;87.62;57097.34;5094301;28;20058;-86
2024/01/14 08:42:17;;;;;;;86.53;29.50;;;2.10;99.90;;;-144.05;87.46;57065.47;5093777;28;20119;-78
2024/01/14 08:44:43;;;;;;;75.28;28.77;;;;;;;-144.05;87.45;57059.09;5097341;28;20054;-78
2024/01/14 08:47:10;;;;;;;85.03;30.70;;;;;;;-144.05;87.21;57101.59;5098538;28;20032;-80
2024/01/14 08:49:39;;;;;;;80.75;27.73;;;;;;;-144.05;87.32;57084.59;5093417;28;20028;-78
2024/01/14 08:52:07;;;;;;;77.40;28.40;;;;;;;-144.05;87.30;57107.97;5093639;28;20627;-79
2024/01/14 08:54:35;;;;;;;84.72;28.05;;;;;;;-144.05;87.40;57103.72;5093486;28;20039;-80
2024/01/14 08:57:01;;;;;;;81.20;28.38;;;;;;;-144.05;86.79;57054.88;5092335;28;20024;-80
2024/01/14 08:59:27;;;;;;;70.60;25.45;;;;;;;-144.05;86.94;57048.50;5093298;28;20020;-78
2024/01/14 09:01:53;;;;;;;79.15;24.63;;;;;;;-144.05;86.81;57099.47;5096632;28;20028;-79
2024/01/14 09:04:20;;;;;;;69.65;24.90;;;;;;;-144.05;87.02;57046.38;5107882;28;20111;-78
2024/01/14 09:06:46;;;;;;;63.20;25.25;;;;;;;-144.05;86.37;57067.59;5095135;28;20044;-80
2024/01/14 09:09:12;;;;;;;64.63;24.27;;;;;;;-144.05;86.34;57061.22;5093938;28;20086;-80
2024/01/14 09:11:39;;;;;;;72.55;24.25;;;;;;;-144.05;86.32;57059.09;5092632;28;20435;-81
2024/01/14 09:14:06;;;;;;;62.35;24.60;;;-1.30;99.90;;;-144.05;86.25;57095.22;5097219;28;20032;-79
2024/01/14 09:16:32;;;;;;;63.10;24.88;;;;;;;-144.05;86.74;57061.22;5106228;28;20095;-78
2024/01/14 09:18:58;;;;;;;67.55;24.85;;;;;;;-144.05;86.74;57073.97;5092983;28;20077;-79
2024/01/14 09:21:25;;;;;;;59.53;21.98;;;;;;;-144.05;87.11;57059.09;5098343;28;20388;-80
2024/01/14 09:23:51;;;;;;;64.38;25.05;;;;;;;-144.05;87.43;57044.25;5096982;28;20035;-80
2024/01/14 09:26:17;;;;;;;63.80;23.58;;;;;;;-144.05;87.03;57052.75;5102104;28;20131;-78
2024/01/14 09:28:43;;;;;;;66.82;25.48;;;;;;;-144.05;86.66;57073.97;5096034;28;20035;-80
2024/01/14 09:31:12;;;;;;;69.65;24.13;;;;;;;-144.05;86.72;57086.72;5101610;28;20039;-79
2024/01/14 09:33:39;;;;;;;63.95;24.27;;;;;;;-144.05;86.69;57076.09;5101525;28;20115;-80
2024/01/14 09:36:08;;;;;;;73.15;26.35;;;;;;;-144.05;87.20;57069.72;5112845;28;20032;-80
2024/01/14 09:38:35;;;;;;;66.03;23.88;;;;;;;-144.05;86.90;57082.47;5102193;28;20024;-80
2024/01/14 09:41:42;;;;;;;69.85;25.67;;;-1.30;99.90;;;-144.05;86.56;57095.22;5106444;28;20081;-80
2024/01/14 09:44:15;;;;;;;52.72;18.13;;;2.10;99.90;;;-144.05;86.14;57050.63;5109118;28;20089;-79
2024/01/14 09:46:46;;;;;;;70.95;25.80;;;-1.30;99.90;;;-144.05;86.54;57082.47;5102781;28;20083;-79
2024/01/14 09:49:15;;;;;;;62.75;23.92;;;;;;;-144.05;86.19;57084.59;5100892;28;20497;-78
2024/01/14 09:51:41;;;;;;;61.35;25.25;;;;;;;-144.05;87.12;57093.09;5113365;28;20043;-80
2024/01/14 09:54:08;;;;;;;66.25;24.35;;;;;;;-144.05;86.27;57069.72;5098056;28;20024;-79
2024/01/14 09:56:35;;;;;;;73.93;25.75;;;;;;;-144.05;86.64;57082.47;5099268;28;20020;-80
2024/01/14 09:59:03;;;;;;;76.55;25.67;;;1.90;99.90;;;-144.05;86.80;57078.22;5107657;28;20393;-78
2024/01/14 10:01:34;;;;;;;65.93;24.13;;;2.30;99.90;;;-144.05;86.89;57056.97;5111597;28;20027;-82
2024/01/14 10:04:06;;;;;;;65.00;23.33;;;;;;;-144.05;86.57;57067.59;5114828;28;20031;-83
2024/01/14 10:06:32;;;;;;;70.82;25.33;;;;;;;-144.05;86.32;57061.22;5104770;28;20077;-79
2024/01/14 10:08:59;;;;;;;59.45;21.85;;;1.50;99.90;;;-144.05;86.31;57052.75;5097728;28;20032;-83
2024/01/14 10:11:25;;;;;;;59.63;21.13;;;;;;;-144.05;85.56;57071.84;5099059;28;20035;-80
2024/01/14 10:13:52;;;;;;;57.50;20.08;;;;;;;-144.05;85.91;57059.09;5098564;28;20024;-81
2024/01/14 10:16:18;;;;;;;46.78;18.48;;;;;;;-144.05;85.16;57061.22;5118478;28;20026;-81
2024/01/14 10:18:44;;;;;;;46.60;17.98;;;;;;;-144.05;85.84;57095.22;5117040;28;20031;-82
2024/01/14 10:21:11;;;;;;;47.97;19.73;;;;;;;-144.05;85.57;57080.34;5108865;28;20503;-81
2024/01/14 10:23:39;;;;;;;49.03;18.77;;;;;;;-144.05;85.27;57035.75;5104731;28;20141;-81
2024/01/14 10:26:06;;;;;;;55.15;20.13;;;;;;;-144.05;85.11;57082.47;5103560;28;20032;-82
2024/01/14 10:28:34;;;;;;;56.00;21.02;;;;;;;-144.05;84.97;57080.34;5112019;28;20028;-80
2024/01/14 10:31:02;;;;;;;52.38;19.75;;;;;;;-144.05;85.17;57082.47;5110230;28;20027;-78
2024/01/14 10:33:34;;;;;;;53.92;19.92;;;;;;;-144.05;85.02;57035.75;5113163;28;20023;-80
2024/01/14 10:36:07;;;;;;;56.85;21.70;;;;;;;-144.05;85.15;57090.97;5114999;28;20400;-79
2024/01/14 10:38:34;;;;;;;55.08;20.73;;;;;;;-144.05;85.39;57071.84;5108477;28;20024;-81
2024/01/14 10:41:01;;;;;;;53.60;21.63;;;;;;;-144.05;86.03;57093.09;5109812;28;20041;-80
2024/01/14 10:43:28;;;;;;;59.60;23.38;;;;;;;-144.05;85.96;57069.72;5109699;28;20039;-80
2024/01/14 10:45:57;;;;;;;52.58;19.75;;;;;;;-144.05;85.92;57078.22;5104381;28;20550;-83
2024/01/14 10:48:28;;;;;;;52.38;20.40;;;2.60;99.90;;;-144.05;86.19;57069.72;5098577;28;20034;-80
2024/01/14 10:51:01;;;;;;;50.45;18.67;;;;;;;-144.05;85.99;57050.63;5102608;28;20058;-78
2024/01/14 10:54:16;;;;;;;51.65;20.75;;;;;;;-144.05;85.27;57052.75;5104932;28;20027;-80
2024/01/14 10:56:58;;;;;;;61.97;19.02;;;-1.70;99.90;;;-144.05;85.42;57061.22;5101770;28;20020;-80